Time;durP1;ratioP1;P1;durP2;ratioP2;P2;SDS_P1;SDS_P2;PMS_P1;PMS_P2;Temp;Humidity;BMP_temperature;BMP_pressure;BME280_temperature;BME280_humidity;BME280_pressure;Samples;Min_cycle;Max_cycle;Signal;HPM_P1;HPM_P2
2021/10/10 00:02:04;;;;;;;19.57;17.70;;;8.10;99.90;;;;;;5034325;28;20444;-62
2021/10/10 00:04:31;;;;;;;19.93;18.03;;;8.10;99.90;;;;;;5034272;28;20451;-62
2021/10/10 00:06:58;;;;;;;19.27;17.50;;;8.10;99.90;;;;;;5034223;28;20465;-63
2021/10/10 00:09:25;;;;;;;18.63;17.00;;;8.10;99.90;;;;;;5034175;28;20445;-63
2021/10/10 00:11:52;;;;;;;19.73;17.73;;;8.10;99.90;;;;;;5026430;28;20454;-63
2021/10/10 00:14:19;;;;;;;18.53;16.83;;;8.00;99.90;;;;;;5014404;28;20777;-63
2021/10/10 00:16:46;;;;;;;17.90;16.40;;;8.00;99.90;;;;;;5027378;28;20479;-62
2021/10/10 00:19:14;;;;;;;17.80;16.27;;;8.00;99.90;;;;;;5033088;28;20484;-62
2021/10/10 00:21:40;;;;;;;19.70;17.70;;;8.00;99.90;;;;;;5034169;28;20468;-62
2021/10/10 00:24:07;;;;;;;20.97;18.80;;;8.00;99.90;;;;;;5023527;28;20446;-63
2021/10/10 00:26:34;;;;;;;17.57;16.23;;;8.00;99.90;;;;;;5014130;28;20469;-63
2021/10/10 00:29:00;;;;;;;18.13;16.57;;;7.90;99.90;;;;;;5013937;28;20442;-63
2021/10/10 00:31:27;;;;;;;17.37;15.87;;;7.90;99.90;;;;;;5014171;28;20843;-63
2021/10/10 00:33:54;;;;;;;21.50;19.27;;;7.80;99.90;;;;;;5014094;28;20446;-63
2021/10/10 00:36:22;;;;;;;18.80;17.20;;;7.80;99.90;;;;;;5028287;28;20803;-63
2021/10/10 00:38:48;;;;;;;19.10;17.40;;;7.70;99.90;;;;;;5033470;28;20491;-63
2021/10/10 00:41:15;;;;;;;20.50;18.60;;;7.70;99.90;;;;;;5033540;28;20445;-63
2021/10/10 00:43:42;;;;;;;19.20;17.50;;;7.60;99.90;;;;;;5026739;28;20446;-63
2021/10/10 00:46:09;;;;;;;19.70;17.80;;;7.60;99.90;;;;;;5013698;28;20850;-63
2021/10/10 00:48:35;;;;;;;19.90;18.30;;;7.50;99.90;;;;;;5013484;28;20446;-63
2021/10/10 00:51:02;;;;;;;22.10;18.67;;;7.50;99.90;;;;;;5013694;28;20456;-63
2021/10/10 00:53:31;;;;;;;20.33;18.13;;;7.50;99.90;;;;;;5031526;28;20969;-63
2021/10/10 00:55:59;;;;;;;19.33;17.63;;;7.40;99.90;;;;;;5033384;28;20465;-63
2021/10/10 00:58:26;;;;;;;19.53;17.57;;;7.40;99.90;;;;;;5033038;28;20480;-63
2021/10/10 01:00:55;;;;;;;28.23;18.43;;;7.40;99.90;;;;;;5033183;28;20445;-63
2021/10/10 01:03:23;;;;;;;20.13;18.03;;;7.40;99.90;;;;;;5015719;28;20457;-62
2021/10/10 01:05:50;;;;;;;21.97;18.90;;;7.40;99.90;;;;;;5013327;28;21004;-63
2021/10/10 01:08:18;;;;;;;20.57;18.73;;;7.40;99.90;;;;;;5013149;28;20445;-63
2021/10/10 01:10:47;;;;;;;18.77;16.93;;;7.40;99.90;;;;;;5013280;28;20472;-63
2021/10/10 01:13:15;;;;;;;19.87;18.00;;;7.30;99.90;;;;;;5013308;28;20442;-62
2021/10/10 01:15:42;;;;;;;21.60;19.50;;;7.30;99.90;;;;;;5031188;28;20500;-63
2021/10/10 01:18:08;;;;;;;18.70;16.87;;;7.30;99.90;;;;;;5032628;28;20484;-63
2021/10/10 01:20:43;;;;;;;20.70;18.90;;;7.30;99.90;;;;;;5032848;28;20452;-62
2021/10/10 01:23:10;;;;;;;18.60;16.87;;;7.30;99.90;;;;;;5032889;28;20503;-63
2021/10/10 01:25:37;;;;;;;21.50;16.80;;;7.30;99.90;;;;;;5029454;28;20474;-62
2021/10/10 01:28:04;;;;;;;20.13;17.10;;;7.40;99.90;;;;;;5012885;28;20446;-63
2021/10/10 01:30:31;;;;;;;17.90;16.23;;;7.40;99.90;;;;;;5011975;28;20529;-63
2021/10/10 01:32:58;;;;;;;18.43;16.77;;;7.40;99.90;;;;;;5012811;28;20442;-62
2021/10/10 01:35:25;;;;;;;18.17;16.27;;;7.40;99.90;;;;;;5012817;28;20936;-63
2021/10/10 01:37:53;;;;;;;17.70;16.07;;;7.40;99.90;;;;;;5015049;28;20845;-63
2021/10/10 01:40:20;;;;;;;20.00;18.00;;;7.30;99.90;;;;;;5032206;28;20846;-62
2021/10/10 01:42:47;;;;;;;19.00;17.33;;;7.30;99.90;;;;;;5032498;28;20444;-60
2021/10/10 01:45:15;;;;;;;17.97;16.27;;;7.20;99.90;;;;;;5032464;28;20444;-63
2021/10/10 01:47:42;;;;;;;20.70;18.60;;;7.20;99.90;;;;;;5032252;28;20468;-64
2021/10/10 01:50:09;;;;;;;19.10;17.20;;;7.10;99.90;;;;;;5024602;28;20931;-63
2021/10/10 01:52:37;;;;;;;19.83;18.00;;;7.00;99.90;;;;;;5013664;28;20450;-63
2021/10/10 01:55:05;;;;;;;20.20;18.30;;;7.00;99.90;;;;;;5012529;28;20473;-63
2021/10/10 01:57:32;;;;;;;19.70;18.00;;;6.90;99.90;;;;;;5012424;28;20475;-63
2021/10/10 01:59:59;;;;;;;19.73;17.90;;;6.90;99.90;;;;;;5012259;28;20814;-62
2021/10/10 02:02:25;;;;;;;25.53;20.20;;;6.90;99.90;;;;;;5024026;28;20453;-61
2021/10/10 02:04:52;;;;;;;24.77;17.97;;;6.80;99.90;;;;;;5032112;28;20822;-63
2021/10/10 02:07:19;;;;;;;19.47;17.60;;;6.80;99.90;;;;;;5032119;28;20469;-62
2021/10/10 02:09:45;;;;;;;19.90;18.00;;;6.80;99.90;;;;;;5031886;28;20433;-63
2021/10/10 02:12:13;;;;;;;22.30;18.67;;;6.80;99.90;;;;;;5031922;28;20835;-62
2021/10/10 02:14:40;;;;;;;19.70;17.90;;;6.90;99.90;;;;;;5018102;28;20454;-63
2021/10/10 02:17:07;;;;;;;20.10;18.10;;;6.90;99.90;;;;;;5012084;28;20484;-62
2021/10/10 02:19:34;;;;;;;20.20;18.30;;;6.80;99.90;;;;;;5011834;28;20481;-61
2021/10/10 02:22:01;;;;;;;20.50;18.30;;;6.80;99.90;;;;;;5012057;28;20446;-63
2021/10/10 02:24:27;;;;;;;21.10;18.90;;;6.80;99.90;;;;;;5012173;28;20438;-62
2021/10/10 02:26:54;;;;;;;21.10;18.90;;;6.70;99.90;;;;;;5028519;28;20480;-63
2021/10/10 02:29:23;;;;;;;20.40;18.60;;;6.70;99.90;;;;;;5031459;28;20441;-63
2021/10/10 02:31:49;;;;;;;19.10;17.20;;;6.60;99.90;;;;;;5031688;28;20786;-63
2021/10/10 02:34:18;;;;;;;20.50;18.40;;;6.60;99.90;;;;;;5031604;28;20449;-62
2021/10/10 02:36:46;;;;;;;20.10;18.00;;;6.60;99.90;;;;;;5031552;28;20508;-63
2021/10/10 02:39:13;;;;;;;19.03;17.10;;;6.60;99.90;;;;;;5013060;28;20848;-62
2021/10/10 02:41:40;;;;;;;20.13;16.50;;;6.60;99.90;;;;;;5011700;28;20796;-63
2021/10/10 02:44:07;;;;;;;21.10;19.00;;;6.50;99.90;;;;;;5011982;28;20446;-63
2021/10/10 02:46:35;;;;;;;20.80;18.70;;;6.50;99.90;;;;;;5011716;28;20465;-63
2021/10/10 02:49:02;;;;;;;21.07;17.50;;;6.60;99.90;;;;;;5011680;28;20445;-63
2021/10/10 02:51:30;;;;;;;18.90;17.03;;;6.50;99.90;;;;;;5031488;28;20449;-63
2021/10/10 02:53:57;;;;;;;20.43;18.27;;;6.60;99.90;;;;;;5031419;28;20452;-63
2021/10/10 02:56:23;;;;;;;19.27;17.23;;;6.60;99.90;;;;;;5031513;28;20465;-63
2021/10/10 02:58:50;;;;;;;18.67;16.57;;;6.60;99.90;;;;;;5031222;28;20484;-62
2021/10/10 03:01:17;;;;;;;17.53;15.67;;;6.70;99.90;;;;;;5030020;28;20528;-62
2021/10/10 03:03:45;;;;;;;18.53;16.60;;;6.70;99.90;;;;;;5011608;28;20448;-63
2021/10/10 03:06:12;;;;;;;18.00;16.10;;;6.70;99.90;;;;;;5011469;28;20465;-62
2021/10/10 03:08:39;;;;;;;17.63;16.03;;;6.70;99.90;;;;;;5011359;28;20446;-63
2021/10/10 03:11:06;;;;;;;18.63;17.03;;;6.70;99.90;;;;;;5024399;28;20445;-62
2021/10/10 03:13:33;;;;;;;21.30;18.73;;;6.60;99.90;;;;;;5031214;28;20452;-63
2021/10/10 03:15:59;;;;;;;18.30;16.50;;;6.60;99.90;;;;;;5031154;28;21040;-62
2021/10/10 03:18:27;;;;;;;19.90;17.80;;;6.60;99.90;;;;;;5030837;28;20994;-63
2021/10/10 03:20:55;;;;;;;18.60;16.90;;;6.60;99.90;;;;;;5019878;28;20453;-63
2021/10/10 03:23:22;;;;;;;20.00;17.80;;;6.60;99.90;;;;;;5011560;28;20788;-63
2021/10/10 03:25:49;;;;;;;18.60;16.80;;;6.60;99.90;;;;;;5011487;28;20465;-63
2021/10/10 03:28:16;;;;;;;18.20;16.23;;;6.60;99.90;;;;;;5011359;28;20446;-62
2021/10/10 03:30:42;;;;;;;19.40;17.40;;;6.60;99.90;;;;;;5011464;28;20452;-64
2021/10/10 03:33:09;;;;;;;20.97;18.87;;;6.60;99.90;;;;;;5025007;28;20969;-63
2021/10/10 03:35:36;;;;;;;23.03;16.47;;;6.60;99.90;;;;;;5031072;28;20929;-63
2021/10/10 03:38:04;;;;;;;19.03;17.20;;;6.60;99.90;;;;;;5030827;28;20448;-63
2021/10/10 03:40:31;;;;;;;18.60;16.13;;;6.60;99.90;;;;;;5030999;28;20452;-62
2021/10/10 03:42:58;;;;;;;19.03;16.60;;;6.60;99.90;;;;;;5031108;28;20449;-62
2021/10/10 03:45:25;;;;;;;18.33;16.40;;;6.60;99.90;;;;;;5013535;28;20446;-62
2021/10/10 03:47:51;;;;;;;18.70;16.73;;;6.50;99.90;;;;;;5011144;28;20449;-63
2021/10/10 03:50:18;;;;;;;17.80;16.13;;;6.50;99.90;;;;;;5011156;28;20950;-63
2021/10/10 03:52:45;;;;;;;20.40;18.30;;;6.50;99.90;;;;;;5011198;28;20449;-63
2021/10/10 03:58:08;;;;;;;21.43;17.13;;;6.40;99.90;;;;;;5088866;28;20570;-63
2021/10/10 04:00:37;;;;;;;18.10;16.20;;;6.40;99.90;;;;;;5088734;28;20441;-63
2021/10/10 04:03:05;;;;;;;21.10;17.53;;;6.30;99.90;;;;;;5089121;28;20442;-62
2021/10/10 04:05:42;;;;;;;18.13;16.43;;;6.30;99.90;;;;;;5086139;28;20454;-62
2021/10/10 04:08:08;;;;;;;16.70;15.00;;;6.30;99.90;;;;;;5068640;28;20497;-62
2021/10/10 04:10:35;;;;;;;18.53;16.70;;;6.30;99.90;;;;;;5117916;22;21092;-62
2021/10/10 04:13:02;;;;;;;20.47;17.50;;;6.30;99.90;;;;;;5071536;28;20439;-63
2021/10/10 04:15:30;;;;;;;21.00;16.50;;;6.20;99.90;;;;;;5068622;28;20839;-63
2021/10/10 04:17:57;;;;;;;19.07;16.93;;;6.20;99.90;;;;;;5068377;28;20443;-63
2021/10/10 04:20:24;;;;;;;18.93;17.00;;;6.20;99.90;;;;;;5068447;28;20485;-62
2021/10/10 04:22:50;;;;;;;18.47;16.57;;;6.10;99.90;;;;;;5067989;28;20443;-60
2021/10/10 04:25:17;;;;;;;21.13;18.80;;;6.10;99.90;;;;;;5068426;28;20439;-63
2021/10/10 04:27:44;;;;;;;21.77;18.20;;;6.10;99.90;;;;;;5068131;28;20859;-63
2021/10/10 04:30:13;;;;;;;21.33;19.13;;;6.10;99.90;;;;;;5068192;28;20478;-62
2021/10/10 04:32:42;;;;;;;20.90;18.80;;;6.00;99.90;;;;;;5068221;28;20448;-61
2021/10/10 04:35:09;;;;;;;19.40;17.40;;;6.00;99.90;;;;;;5067985;28;20961;-61
2021/10/10 04:37:36;;;;;;;21.00;18.57;;;6.00;99.90;;;;;;5067650;28;20442;-63
2021/10/10 04:40:03;;;;;;;20.83;18.63;;;6.00;99.90;;;;;;5067891;28;20467;-63
2021/10/10 04:42:30;;;;;;;17.40;15.60;;;6.00;99.90;;;;;;5068088;28;20443;-63
2021/10/10 04:44:57;;;;;;;22.13;20.07;;;5.90;99.90;;;;;;5068329;28;20451;-63
2021/10/10 04:47:23;;;;;;;21.60;17.80;;;5.90;99.90;;;;;;5067796;28;20479;-64
2021/10/10 04:49:51;;;;;;;19.97;17.33;;;5.80;99.90;;;;;;5067694;28;20467;-63
2021/10/10 04:52:18;;;;;;;19.63;17.70;;;5.80;99.90;;;;;;5067931;28;20863;-62
2021/10/10 04:54:47;;;;;;;21.03;17.30;;;5.70;99.90;;;;;;5067915;28;20443;-63
2021/10/10 04:57:14;;;;;;;20.80;16.50;;;5.70;99.90;;;;;;5067670;28;20526;-63
2021/10/10 04:59:48;;;;;;;21.90;17.90;;;5.60;99.90;;;;;;5067416;28;20556;-64
2021/10/10 05:02:15;;;;;;;20.90;18.03;;;5.60;99.90;;;;;;5067801;28;20530;-63
2021/10/10 05:04:41;;;;;;;20.70;17.90;;;5.50;99.90;;;;;;5067718;28;20453;-63
2021/10/10 05:07:09;;;;;;;21.53;19.13;;;5.50;99.90;;;;;;5067619;28;20505;-64
2021/10/10 05:09:36;;;;;;;25.90;19.50;;;5.50;99.90;;;;;;5053567;28;21003;-63
2021/10/10 05:12:03;;;;;;;25.47;20.07;;;5.50;99.90;;;;;;5054556;28;20452;-63
2021/10/10 05:14:29;;;;;;;24.30;19.70;;;5.50;99.90;;;;;;5054611;28;20502;-63
2021/10/10 05:16:57;;;;;;;24.83;20.13;;;5.50;99.90;;;;;;5054735;28;20441;-64
2021/10/10 05:19:24;;;;;;;21.33;18.70;;;5.60;99.90;;;;;;5054098;28;20973;-64
2021/10/10 05:21:51;;;;;;;25.90;19.90;;;5.60;99.90;;;;;;5054708;28;20502;-63
2021/10/10 05:24:19;;;;;;;21.70;18.43;;;5.60;99.90;;;;;;5054743;28;20449;-64
2021/10/10 05:26:45;;;;;;;21.90;19.40;;;5.60;99.90;;;;;;5054286;28;20484;-63
2021/10/10 05:29:12;;;;;;;22.03;19.67;;;5.60;99.90;;;;;;5053986;28;20472;-63
2021/10/10 05:31:39;;;;;;;26.97;19.03;;;5.60;99.90;;;;;;5054219;28;20444;-63
2021/10/10 05:34:05;;;;;;;24.47;20.30;;;5.70;99.90;;;;;;5054823;28;20440;-62
2021/10/10 05:36:32;;;;;;;25.07;20.70;;;5.70;99.90;;;;;;5054469;28;20440;-63
2021/10/10 05:38:59;;;;;;;22.03;19.30;;;5.70;99.90;;;;;;5054198;28;20984;-63
2021/10/10 05:41:27;;;;;;;24.53;20.77;;;5.70;99.90;;;;;;5053912;28;20452;-62
2021/10/10 05:43:54;;;;;;;24.03;18.47;;;5.70;99.90;;;;;;5054211;28;20467;-62
2021/10/10 05:46:20;;;;;;;25.37;21.37;;;5.70;99.90;;;;;;5054132;28;20455;-63
2021/10/10 05:48:47;;;;;;;24.27;19.77;;;5.70;99.90;;;;;;5057101;28;20451;-64
2021/10/10 05:51:14;;;;;;;26.10;21.27;;;5.70;99.90;;;;;;5056655;28;20456;-64
2021/10/10 05:53:40;;;;;;;24.00;20.30;;;5.70;99.90;;;;;;5056669;28;20449;-63
2021/10/10 05:56:07;;;;;;;26.90;19.80;;;5.70;99.90;;;;;;5056280;28;20448;-63
2021/10/10 05:58:41;;;;;;;29.77;20.23;;;5.70;99.90;;;;;;5056563;28;20463;-62
2021/10/10 06:01:08;;;;;;;22.47;18.97;;;5.80;99.90;;;;;;5056341;28;20459;-63
2021/10/10 06:03:36;;;;;;;24.67;19.10;;;5.90;99.90;;;;;;5056215;28;20436;-63
2021/10/10 06:06:03;;;;;;;25.70;19.70;;;5.90;99.90;;;;;;5056747;28;20448;-63
2021/10/10 06:08:31;;;;;;;24.60;18.40;;;5.90;99.90;;;;;;5056623;28;20483;-63
2021/10/10 06:10:57;;;;;;;23.57;19.97;;;6.00;99.90;;;;;;5056693;28;20511;-65
2021/10/10 06:16:13;;;;;;;26.47;20.23;;;6.20;99.90;;;;;;5040294;28;20858;-58
2021/10/10 06:18:41;;;;;;;23.47;19.37;;;6.20;99.90;;;;;;5042996;28;20438;-58
2021/10/10 06:21:23;;;;;;;19.40;17.30;;;6.30;99.90;;;;;;5041064;28;20920;-58
2021/10/10 06:23:49;;;;;;;19.70;17.60;;;6.40;99.90;;;;;;5043704;28;20448;-62
2021/10/10 06:26:16;;;;;;;25.23;20.23;;;6.50;99.90;;;;;;5024029;28;20449;-62
2021/10/10 06:28:43;;;;;;;21.20;18.17;;;6.50;99.90;;;;;;5022743;28;20489;-62
2021/10/10 06:31:11;;;;;;;24.07;20.70;;;6.60;99.90;;;;;;5023355;28;20445;-63
2021/10/10 06:33:38;;;;;;;22.47;20.10;;;6.70;99.90;;;;;;5037979;28;20468;-61
2021/10/10 06:36:05;;;;;;;22.27;18.90;;;6.70;99.90;;;;;;5043871;28;20455;-61
2021/10/10 06:38:32;;;;;;;22.03;19.73;;;6.80;99.90;;;;;;5042474;28;20440;-63
2021/10/10 06:41:00;;;;;;;20.90;18.13;;;6.90;99.90;;;;;;5044152;28;20946;-63
2021/10/10 06:43:32;;;;;;;24.47;20.03;;;7.00;99.90;;;;;;5045440;28;20565;-61
2021/10/10 06:45:59;;;;;;;22.70;18.13;;;7.00;99.90;;;;;;5045108;28;20456;-62
2021/10/10 06:48:27;;;;;;;20.37;18.27;;;7.10;99.90;;;;;;5044240;28;20495;-63
2021/10/10 06:50:54;;;;;;;24.03;19.30;;;7.10;99.90;;;;;;5045812;28;20475;-62
2021/10/10 06:53:21;;;;;;;21.50;19.23;;;7.20;99.90;;;;;;5046382;28;20448;-63
2021/10/10 06:55:48;;;;;;;23.00;20.00;;;7.30;99.90;;;;;;5044853;28;20456;-60
2021/10/10 06:58:15;;;;;;;19.57;17.50;;;7.30;99.90;;;;;;5045649;28;20451;-63
2021/10/10 07:00:42;;;;;;;20.83;18.77;;;7.40;99.90;;;;;;5045605;28;20468;-61
2021/10/10 07:03:09;;;;;;;21.00;18.93;;;7.50;99.90;;;;;;5044668;28;20451;-63
2021/10/10 07:05:37;;;;;;;23.20;20.90;;;7.50;99.90;;;;;;5045985;28;20884;-61
2021/10/10 07:08:05;;;;;;;20.17;16.10;;;7.60;99.90;;;;;;5044667;28;20480;-61
2021/10/10 07:10:32;;;;;;;19.97;17.93;;;7.70;99.90;;;;;;5044506;28;20484;-64
2021/10/10 07:12:58;;;;;;;23.73;18.33;;;7.80;99.90;;;;;;5043776;28;20445;-63
2021/10/10 07:15:25;;;;;;;20.53;18.43;;;7.90;99.90;;;;;;5044727;28;20452;-64
2021/10/10 07:17:59;;;;;;;21.33;16.70;;;8.00;99.90;;;;;;5048661;28;20449;-60
2021/10/10 07:20:30;;;;;;;19.60;16.63;;;8.10;99.90;;;;;;5047903;28;20468;-64
2021/10/10 07:23:10;;;;;;;22.13;19.70;;;8.20;99.90;;;;;;5044731;28;20487;-61
2021/10/10 07:25:37;;;;;;;22.30;18.07;;;8.30;99.90;;;;;;5025940;28;20531;-62
2021/10/10 07:28:04;;;;;;;21.10;17.80;;;8.40;99.90;;;;;;5025052;28;20485;-64
2021/10/10 07:30:31;;;;;;;18.60;16.80;;;8.50;99.90;;;;;;5022466;28;20469;-62
2021/10/10 07:32:58;;;;;;;20.87;18.87;;;8.70;99.90;;;;;;5022090;28;20449;-63
2021/10/10 07:35:24;;;;;;;23.77;19.07;;;8.70;99.90;;;;;;5041822;28;20452;-64
2021/10/10 07:37:51;;;;;;;19.60;17.80;;;8.80;99.90;;;;;;5042260;28;20440;-63
2021/10/10 07:40:20;;;;;;;21.33;19.20;;;8.90;99.90;;;;;;5040422;28;21371;-64
2021/10/10 07:42:46;;;;;;;19.87;17.80;;;9.00;99.90;;;;;;5042856;28;20484;-63
2021/10/10 07:45:18;;;;;;;21.67;18.27;;;9.10;99.90;;;;;;5040493;28;21250;-63
2021/10/10 07:47:49;;;;;;;22.07;19.93;;;9.20;99.90;;;;;;5042139;28;20483;-64
2021/10/10 07:50:17;;;;;;;23.13;21.00;;;9.20;99.90;;;;;;5039972;28;20597;-64
2021/10/10 07:52:44;;;;;;;19.63;17.57;;;9.30;99.90;;;;;;5039953;28;20455;-63
2021/10/10 07:55:11;;;;;;;24.03;18.03;;;9.40;99.90;;;;;;5040219;28;21111;-64
2021/10/10 07:57:40;;;;;;;23.53;21.13;;;9.50;99.90;;;;;;5040215;28;20495;-64
2021/10/10 08:00:09;;;;;;;19.87;18.07;;;9.50;99.90;;;;;;5040229;28;20476;-63
2021/10/10 08:02:52;;;;;;;24.03;21.43;;;9.60;99.90;;;;;;5040492;28;20489;-63
2021/10/10 08:05:20;;;;;;;21.03;18.97;;;9.70;99.90;;;;;;5041214;28;20460;-64
2021/10/10 08:07:49;;;;;;;21.23;19.10;;;9.70;99.90;;;;;;5048095;28;20664;-65
2021/10/10 08:10:15;;;;;;;22.23;19.97;;;9.80;99.90;;;;;;5044297;28;20484;-63
2021/10/10 08:12:44;;;;;;;22.97;20.77;;;9.90;99.90;;;;;;5039775;28;20945;-65
2021/10/10 08:15:13;;;;;;;21.33;19.23;;;10.10;99.90;;;;;;5039420;28;20464;-65
2021/10/10 08:17:39;;;;;;;21.40;19.20;;;10.10;99.90;;;;;;5039835;28;20444;-65
2021/10/10 08:20:08;;;;;;;21.37;19.47;;;10.10;99.90;;;;;;5039675;28;20472;-63
2021/10/10 08:22:36;;;;;;;21.53;19.47;;;10.20;99.90;;;;;;5039618;28;20444;-65
2021/10/10 08:25:07;;;;;;;23.03;20.70;;;10.30;99.90;;;;;;5039521;28;20463;-65
2021/10/10 08:27:33;;;;;;;21.90;19.93;;;10.40;99.90;;;;;;5039599;28;20480;-66
2021/10/10 08:30:02;;;;;;;20.03;18.23;;;10.60;99.90;;;;;;5039483;28;20855;-63
2021/10/10 08:32:29;;;;;;;22.53;20.53;;;10.70;99.90;;;;;;5039361;28;20451;-65
2021/10/10 08:34:56;;;;;;;21.37;19.47;;;10.80;99.90;;;;;;5039465;28;20444;-65
2021/10/10 08:37:22;;;;;;;24.47;22.27;;;10.90;99.90;;;;;;5040579;28;21211;-64
2021/10/10 08:39:49;;;;;;;22.37;20.47;;;11.10;99.90;;;;;;5039191;28;20474;-65
2021/10/10 08:42:22;;;;;;;22.20;20.10;;;11.10;99.90;;;;;;5039497;28;20454;-64
2021/10/10 08:44:52;;;;;;;21.13;19.00;;;11.20;99.90;;;;;;5041365;28;20462;-65
2021/10/10 08:47:23;;;;;;;21.30;19.30;;;11.30;99.90;;;;;;5043562;28;20547;-65
2021/10/10 08:49:50;;;;;;;21.33;19.50;;;11.50;99.90;;;;;;5043432;28;20482;-64
2021/10/10 08:52:17;;;;;;;23.20;20.83;;;11.50;99.90;;;;;;5043218;28;20452;-62
2021/10/10 08:54:44;;;;;;;21.87;20.17;;;11.70;99.90;;;;;;5042864;28;20448;-65
2021/10/10 08:57:11;;;;;;;21.90;20.00;;;11.80;99.90;;;;;;5042714;28;21020;-65
2021/10/10 08:59:42;;;;;;;23.97;21.87;;;11.90;99.90;;;;;;5042529;28;20475;-64
2021/10/10 09:02:18;;;;;;;20.73;18.83;;;12.10;99.90;;;;;;5043496;28;20452;-64
2021/10/10 09:04:46;;;;;;;23.67;21.40;;;12.20;99.90;;;;;;5046138;28;21106;-63
2021/10/10 09:07:13;;;;;;;22.83;20.83;;;12.30;99.90;;;;;;5044018;28;20448;-64
2021/10/10 09:09:41;;;;;;;25.60;23.33;;;12.50;99.90;;;;;;5042726;28;20487;-63
2021/10/10 09:12:10;;;;;;;21.43;19.50;;;12.70;99.90;;;;;;5042888;28;20467;-63
2021/10/10 09:14:45;;;;;;;25.07;23.03;;;12.80;99.90;;;;;;5042992;28;20927;-62
2021/10/10 09:17:14;;;;;;;23.00;21.20;;;12.90;99.90;;;;;;5042625;28;20589;-64
2021/10/10 09:19:47;;;;;;;25.27;23.00;;;13.10;99.90;;;;;;5043091;28;20465;-64
2021/10/10 09:22:15;;;;;;;25.13;22.77;;;13.30;99.90;;;;;;5045815;28;21170;-64
2021/10/10 09:24:42;;;;;;;23.70;21.80;;;13.30;99.90;;;;;;5046049;28;20825;-62
2021/10/10 09:27:12;;;;;;;24.70;22.70;;;13.50;99.90;;;;;;5049812;28;20455;-63
2021/10/10 09:29:42;;;;;;;26.27;24.17;;;13.80;99.90;;;;;;5050784;28;20487;-63
2021/10/10 09:32:13;;;;;;;23.23;21.53;;;13.90;99.90;;;;;;5055089;28;20524;-61
2021/10/10 09:34:42;;;;;;;23.73;21.93;;;14.10;99.90;;;;;;5058031;28;20483;-60
2021/10/10 09:37:20;;;;;;;23.60;21.60;;;14.10;99.90;;;;;;5058772;28;20483;-63
2021/10/10 09:39:56;;;;;;;24.83;22.90;;;14.40;99.90;;;;;;5064031;28;20452;-61
2021/10/10 09:42:39;;;;;;;25.30;23.27;;;14.80;99.90;;;;;;5065816;28;20435;-59
2021/10/10 09:45:22;;;;;;;25.87;23.87;;;14.90;99.90;;;;;;5063749;28;20932;-62
2021/10/10 09:47:55;;;;;;;24.90;23.00;;;15.10;99.90;;;;;;5043103;28;21082;-63
2021/10/10 09:50:22;;;;;;;25.90;23.93;;;15.40;99.90;;;;;;5045535;28;20475;-63
2021/10/10 09:53:00;;;;;;;26.07;24.27;;;15.60;99.90;;;;;;5047824;28;20861;-60
2021/10/10 09:55:29;;;;;;;26.10;24.17;;;15.70;99.90;;;;;;5054405;28;20479;-62
2021/10/10 09:57:59;;;;;;;26.40;24.60;;;15.60;99.90;;;;;;5053967;28;20440;-61
2021/10/10 10:00:28;;;;;;;26.27;24.20;;;15.70;99.90;;;;;;5060674;28;20532;-64
2021/10/10 10:03:01;;;;;;;27.80;25.77;;;15.80;99.90;;;;;;5046115;28;20494;-62
2021/10/10 10:05:32;;;;;;;25.50;23.60;;;15.90;99.90;;;;;;5050318;28;20452;-63
2021/10/10 10:08:00;;;;;;;26.97;24.70;;;16.10;99.90;;;;;;5049123;28;20491;-63
2021/10/10 10:10:30;;;;;;;25.93;23.87;;;16.10;99.90;;;;;;5065489;22;21331;-62
2021/10/10 10:12:58;;;;;;;27.03;24.93;;;16.10;99.90;;;;;;5039331;28;21243;-62
2021/10/10 10:15:27;;;;;;;26.30;24.60;;;16.30;99.90;;;;;;5032212;28;20471;-62
2021/10/10 10:17:55;;;;;;;27.20;25.27;;;16.30;99.90;;;;;;5032739;28;20452;-62
2021/10/10 10:20:22;;;;;;;28.03;26.07;;;16.60;99.90;;;;;;5031950;28;20475;-62
2021/10/10 10:22:51;;;;;;;27.93;25.90;;;16.80;99.90;;;;;;5030778;28;20448;-62
2021/10/10 10:25:18;;;;;;;29.33;26.60;;;17.20;99.90;;;;;;5027744;28;20457;-64
2021/10/10 10:27:47;;;;;;;29.00;26.63;;;17.50;99.80;;;;;;5028386;28;20460;-63
2021/10/10 10:30:14;;;;;;;28.87;26.20;;;17.90;98.00;;;;;;5036355;28;20472;-62
2021/10/10 10:32:41;;;;;;;31.50;29.03;;;18.40;97.00;;;;;;5025840;28;20453;-63
2021/10/10 10:35:11;;;;;;;26.73;24.73;;;18.80;96.20;;;;;;5014736;28;20446;-62
2021/10/10 10:37:50;;;;;;;29.63;27.33;;;18.80;94.40;;;;;;5015423;28;20474;-64
2021/10/10 10:40:31;;;;;;;28.87;26.77;;;19.40;92.80;;;;;;5015123;28;20470;-64
2021/10/10 10:43:03;;;;;;;28.43;26.43;;;19.90;90.80;;;;;;5014247;28;20848;-63
2021/10/10 10:45:32;;;;;;;30.00;27.60;;;20.20;86.40;;;;;;5014739;28;20890;-64
2021/10/10 10:48:01;;;;;;;27.57;25.47;;;20.00;85.00;;;;;;5015127;28;20469;-64
2021/10/10 10:50:28;;;;;;;26.57;24.70;;;20.40;85.80;;;;;;5014562;28;20470;-64
2021/10/10 10:52:58;;;;;;;28.20;25.70;;;20.40;83.60;;;;;;5014870;28;20450;-64
2021/10/10 10:55:26;;;;;;;29.03;26.90;;;20.10;80.80;;;;;;5015579;28;20449;-63
2021/10/10 10:57:54;;;;;;;29.10;27.00;;;20.10;80.40;;;;;;5014564;28;20461;-64
2021/10/10 11:00:25;;;;;;;30.17;28.17;;;20.40;79.30;;;;;;5014975;28;20462;-64
2021/10/10 11:03:09;;;;;;;29.43;27.40;;;20.40;78.10;;;;;;5014884;28;20982;-64
2021/10/10 11:05:39;;;;;;;28.87;26.97;;;20.60;76.80;;;;;;5014083;28;20450;-64
2021/10/10 11:08:07;;;;;;;30.10;27.17;;;21.10;76.80;;;;;;5014913;28;20442;-64
2021/10/10 11:10:36;;;;;;;29.40;27.50;;;20.90;77.20;;;;;;5014675;28;20478;-64
2021/10/10 11:13:23;;;;;;;27.80;26.10;;;21.90;73.90;;;;;;5014602;28;20453;-64
2021/10/10 11:15:52;;;;;;;29.93;27.50;;;23.10;69.00;;;;;;5013409;28;20454;-64
2021/10/10 11:18:19;;;;;;;28.43;26.30;;;23.80;64.00;;;;;;5012691;28;20452;-64
2021/10/10 11:20:51;;;;;;;27.90;25.93;;;24.90;58.90;;;;;;5013074;28;20466;-62
2021/10/10 11:23:17;;;;;;;29.33;27.23;;;24.80;54.70;;;;;;5012940;28;20811;-64
2021/10/10 11:25:45;;;;;;;29.13;27.23;;;25.10;54.00;;;;;;5012873;28;20441;-64
2021/10/10 11:28:12;;;;;;;31.50;29.00;;;26.00;51.70;;;;;;5012488;28;20453;-63
2021/10/10 11:30:39;;;;;;;30.07;28.07;;;25.90;50.60;;;;;;5012488;28;20829;-64
2021/10/10 11:33:07;;;;;;;31.80;29.80;;;26.20;49.70;;;;;;5012754;28;20789;-64
2021/10/10 11:35:34;;;;;;;30.57;28.30;;;26.20;48.20;;;;;;5012680;28;20438;-63
2021/10/10 11:38:07;;;;;;;28.90;27.00;;;25.40;49.20;;;;;;5013718;28;20537;-64
2021/10/10 11:40:34;;;;;;;31.77;29.50;;;24.30;50.30;;;;;;5013515;28;20454;-63
2021/10/10 11:43:01;;;;;;;30.20;28.10;;;23.80;50.90;;;;;;5013717;28;20453;-64
2021/10/10 11:45:28;;;;;;;30.67;28.63;;;23.20;51.90;;;;;;5013438;28;20445;-64
2021/10/10 11:47:56;;;;;;;28.53;26.63;;;22.50;52.80;;;;;;5013456;28;21005;-64
2021/10/10 11:50:24;;;;;;;28.80;26.90;;;21.80;54.40;;;;;;5013985;28;20825;-64
2021/10/10 11:53:02;;;;;;;29.90;27.90;;;21.50;55.80;;;;;;5013627;28;20457;-64
2021/10/10 11:55:35;;;;;;;29.27;27.17;;;21.20;56.80;;;;;;5013524;28;20449;-63
2021/10/10 11:58:03;;;;;;;28.30;26.40;;;21.10;58.50;;;;;;5012806;28;20532;-64
2021/10/10 12:00:31;;;;;;;30.00;27.97;;;21.80;58.40;;;;;;5013554;28;20843;-64
2021/10/10 12:03:06;;;;;;;32.50;29.70;;;22.40;57.00;;;;;;5014989;28;20461;-63
2021/10/10 12:05:40;;;;;;;27.83;25.93;;;22.00;56.40;;;;;;5015070;28;20801;-63
2021/10/10 12:08:17;;;;;;;29.50;27.23;;;21.70;57.40;;;;;;5014658;28;21008;-64
2021/10/10 12:10:45;;;;;;;28.53;26.80;;;21.60;56.60;;;;;;5014924;28;20469;-64
2021/10/10 12:13:12;;;;;;;29.00;27.20;;;21.50;56.30;;;;;;5014489;28;21078;-64
2021/10/10 12:15:39;;;;;;;29.30;27.17;;;21.30;56.50;;;;;;5014826;28;20457;-63
2021/10/10 12:18:12;;;;;;;27.57;25.53;;;21.10;57.20;;;;;;5014836;28;20445;-64
2021/10/10 12:20:41;;;;;;;30.30;28.00;;;20.70;58.80;;;;;;5018413;28;20878;-63
2021/10/10 12:23:09;;;;;;;29.10;27.10;;;20.10;60.60;;;;;;5019290;28;20517;-63
2021/10/10 12:25:38;;;;;;;29.27;27.37;;;20.10;60.40;;;;;;5018373;28;20434;-64
2021/10/10 12:28:08;;;;;;;27.10;25.20;;;20.10;61.20;;;;;;5018732;28;20445;-64
2021/10/10 12:30:37;;;;;;;29.83;27.17;;;20.20;60.90;;;;;;5018896;28;20482;-63
2021/10/10 12:33:25;;;;;;;26.10;24.47;;;20.50;60.40;;;;;;5018343;28;20472;-64
2021/10/10 12:35:58;;;;;;;28.27;26.37;;;20.40;61.30;;;;;;5017652;28;20815;-63
2021/10/10 12:38:33;;;;;;;27.23;25.53;;;20.00;61.70;;;;;;5017766;28;20525;-61
2021/10/10 12:41:00;;;;;;;28.17;26.27;;;20.00;63.50;;;;;;5017430;28;20469;-64
2021/10/10 12:43:34;;;;;;;28.17;26.17;;;20.00;62.80;;;;;;5018116;28;20453;-64
2021/10/10 12:46:02;;;;;;;28.43;26.43;;;19.70;63.90;;;;;;5018209;28;20802;-62